KGRK

Robert Gray AAF Airport

Fort Hood/Killeen, Texas, USA
METAR KGRK 170238Z AUTO 01011KT 2SM -RA BR OVC007 08/08 A3022 RMK AO2 VIS 1 1/8 RWY15 SLP237
Observed Flight Rules
Oct-17 @ 02:38 UTC (31 minutes ago) Instrument Flight Rules
Wind Visibility Clouds Conditions
10° at 11 knots 2 miles
  • Overcast at 700' AGL
  • Light Rain
  • Mist
Temperatures Readings
Current 8°C / 46°F
Dewpoint 8°C / 46°F
Humidity 100%
Altimeter 30.22" Hg
Pressure 1023.7 hPa
Elevation 309
METAR KGRK 170238Z AUTO 01011KT 2SM -RA BR OVC007 08/08 A3022 RMK AO2 VIS 1 1/8 RWY15 SLP237
Observed Flight Rules
Oct-17 @ 02:38 UTC
(31 minutes ago)
IFR
Wind Visibility
10° at 11 knots 2 miles
Clouds
  • Overcast at 700' AGL
Conditions
  • Light Rain
  • Mist
Temperature Dewpoint
8°C / 46°F 8°C / 46°F
Humidity Altimeter Pressure
100% 30.22" Hg 1023.7 hPa